createdAt,value
2022-10-02T00:11:26.969Z,11.9
2022-10-02T00:26:37.732Z,7.6
2022-10-02T00:41:47.946Z,7.1
2022-10-02T00:56:57.608Z,3.6
2022-10-02T01:12:07.107Z,12.8
2022-10-02T01:27:16.432Z,10
2022-10-02T01:42:26.348Z,7.5
2022-10-02T01:57:35.693Z,15.1
2022-10-02T02:12:45.064Z,13.7
2022-10-02T02:27:55.179Z,10.5
2022-10-02T02:43:05.736Z,12.5
2022-10-02T02:58:15.078Z,19.3
2022-10-02T03:13:24.573Z,19
2022-10-02T03:28:57.254Z,19.2
2022-10-02T03:44:07.201Z,22.6
2022-10-02T03:59:16.892Z,20.4
2022-10-02T04:14:26.354Z,17.9
2022-10-02T04:29:35.384Z,22.4
2022-10-02T04:44:44.972Z,23.4
2022-10-02T04:59:54.409Z,21.6
2022-10-02T05:15:06.232Z,22.8
2022-10-02T05:30:15.470Z,24.5
2022-10-02T05:45:24.841Z,25.4
2022-10-02T06:00:34.304Z,27.4
2022-10-02T06:15:44.036Z,19.8
2022-10-02T06:30:53.679Z,21.7
2022-10-02T06:46:06.534Z,19
2022-10-02T07:01:16.482Z,16.6
2022-10-02T07:16:26.504Z,13.4
2022-10-02T07:31:36.741Z,11.5
2022-10-02T07:46:46.267Z,15.5
2022-10-02T08:01:56.697Z,23.1
2022-10-02T08:17:06.945Z,13.8
2022-10-02T08:32:16.672Z,15.1
2022-10-02T08:47:26.080Z,19.1
2022-10-02T09:02:36.254Z,18.6
2022-10-02T09:17:46.208Z,14.6
2022-10-02T09:32:56.122Z,20.1
2022-10-02T09:48:05.925Z,10.5
2022-10-02T10:03:15.508Z,13.2
2022-10-02T10:18:24.595Z,14.2
2022-10-02T10:33:34.593Z,9.8
2022-10-02T10:48:50.141Z,11.6
2022-10-02T11:04:00.387Z,10.7
2022-10-02T11:19:10.011Z,17.3
2022-10-02T11:34:18.625Z,10.6
2022-10-02T11:49:27.641Z,12
2022-10-02T12:04:37.646Z,16.4
2022-10-02T12:19:49.170Z,7
2022-10-02T12:34:58.336Z,11.4
2022-10-02T12:50:07.460Z,6.7
2022-10-02T13:05:16.638Z,6.7
2022-10-02T13:20:26.483Z,9.5
2022-10-02T13:35:37.128Z,5.9
2022-10-02T13:50:46.878Z,5.2
2022-10-02T14:05:58.382Z,4
2022-10-02T14:21:08.673Z,9.4
2022-10-02T14:36:18.354Z,6.4
2022-10-02T14:51:27.519Z,4.3
2022-10-02T15:06:36.847Z,6.1
2022-10-02T15:21:46.238Z,7.4
2022-10-02T15:36:55.310Z,5.8
2022-10-02T15:52:05.515Z,6.2
2022-10-02T16:07:14.863Z,10
2022-10-02T16:22:25.292Z,8.1
2022-10-02T16:37:34.077Z,7.9
2022-10-02T16:52:44.174Z,9
2022-10-02T17:07:53.458Z,12.4
2022-10-02T17:23:03.188Z,9
2022-10-02T17:38:12.267Z,10.8
2022-10-02T17:53:21.499Z,9.2
2022-10-02T18:08:31.145Z,7.6
2022-10-02T18:23:40.164Z,10.7
2022-10-02T18:38:49.653Z,12.5
2022-10-02T18:53:58.944Z,9.6
2022-10-02T19:09:08.227Z,8
2022-10-02T19:24:17.905Z,12.6
2022-10-02T19:39:27.445Z,5.9
2022-10-02T19:54:36.427Z,11.6
2022-10-02T20:09:45.737Z,10.5
2022-10-02T20:24:55.109Z,16.7
2022-10-02T20:40:07.205Z,11.7
2022-10-02T20:55:17.078Z,21.1
2022-10-02T21:10:26.341Z,17.2
2022-10-02T21:25:36.241Z,19.2
2022-10-02T21:40:46.192Z,15.8
2022-10-02T21:55:56.112Z,12.3
2022-10-02T22:11:05.556Z,8.9
2022-10-02T22:26:14.912Z,9.4
2022-10-02T22:41:24.681Z,15
2022-10-02T22:56:33.825Z,19.8
2022-10-02T23:11:43.641Z,11.3
2022-10-02T23:26:53.007Z,18.4
2022-10-02T23:42:02.503Z,18.9
2022-10-02T23:57:11.627Z,13.2
